sensor_id;sensor_type;location;lat;lon;timestamp;pressure;altitude;pressure_sealevel;temperature;humidity
6204;BME280;3135;42.602;23.468;2022-09-20T00:01:15;93093.72;;;9.92;100.00
6204;BME280;3135;42.602;23.468;2022-09-20T00:03:43;93090.84;;;9.78;100.00
6204;BME280;3135;42.602;23.468;2022-09-20T00:06:12;93106.06;;;9.78;100.00
6204;BME280;3135;42.602;23.468;2022-09-20T00:08:39;93102.41;;;9.68;100.00
6204;BME280;3135;42.602;23.468;2022-09-20T00:11:07;93107.13;;;9.82;100.00
6204;BME280;3135;42.602;23.468;2022-09-20T00:13:35;93103.50;;;9.62;100.00
6204;BME280;3135;42.602;23.468;2022-09-20T00:16:04;93090.69;;;9.59;100.00
6204;BME280;3135;42.602;23.468;2022-09-20T00:18:30;93107.75;;;9.63;100.00
6204;BME280;3135;42.602;23.468;2022-09-20T00:20:56;93094.84;;;9.36;100.00
6204;BME280;3135;42.602;23.468;2022-09-20T00:23:21;93102.31;;;9.34;100.00
6204;BME280;3135;42.602;23.468;2022-09-20T00:25:54;93112.66;;;9.41;100.00
6204;BME280;3135;42.602;23.468;2022-09-20T00:28:21;93106.88;;;9.29;100.00
6204;BME280;3135;42.602;23.468;2022-09-20T00:30:47;93103.22;;;9.04;100.00
6204;BME280;3135;42.602;23.468;2022-09-20T00:33:13;93088.25;;;9.18;100.00
6204;BME280;3135;42.602;23.468;2022-09-20T00:35:42;93090.94;;;9.13;100.00
6204;BME280;3135;42.602;23.468;2022-09-20T00:38:08;93100.81;;;9.03;100.00
6204;BME280;3135;42.602;23.468;2022-09-20T00:40:34;93096.63;;;8.86;100.00
6204;BME280;3135;42.602;23.468;2022-09-20T00:43:00;93101.19;;;8.70;100.00
6204;BME280;3135;42.602;23.468;2022-09-20T00:45:28;93105.09;;;8.99;100.00
6204;BME280;3135;42.602;23.468;2022-09-20T00:50:32;93108.63;;;8.74;100.00
6204;BME280;3135;42.602;23.468;2022-09-20T00:53:22;93107.00;;;8.83;100.00
6204;BME280;3135;42.602;23.468;2022-09-20T00:55:56;93101.72;;;8.67;100.00
6204;BME280;3135;42.602;23.468;2022-09-20T00:58:25;93104.09;;;8.74;100.00
6204;BME280;3135;42.602;23.468;2022-09-20T01:00:52;93103.03;;;8.80;100.00
6204;BME280;3135;42.602;23.468;2022-09-20T01:03:20;93122.50;;;8.81;100.00
6204;BME280;3135;42.602;23.468;2022-09-20T01:05:49;93097.72;;;8.70;100.00
6204;BME280;3135;42.602;23.468;2022-09-20T01:08:17;93096.66;;;8.56;100.00
6204;BME280;3135;42.602;23.468;2022-09-20T01:10:43;93098.75;;;8.74;100.00
6204;BME280;3135;42.602;23.468;2022-09-20T01:13:08;93090.00;;;8.58;100.00
6204;BME280;3135;42.602;23.468;2022-09-20T01:15:36;93087.06;;;8.60;100.00
6204;BME280;3135;42.602;23.468;2022-09-20T01:18:05;93084.16;;;8.51;100.00
6204;BME280;3135;42.602;23.468;2022-09-20T01:20:36;93091.59;;;8.69;100.00
6204;BME280;3135;42.602;23.468;2022-09-20T01:28:46;93079.88;;;8.55;100.00
6204;BME280;3135;42.602;23.468;2022-09-20T01:31:33;93087.06;;;8.80;100.00
6204;BME280;3135;42.602;23.468;2022-09-20T01:34:09;93073.22;;;8.63;100.00
6204;BME280;3135;42.602;23.468;2022-09-20T01:36:49;93088.94;;;8.64;100.00
6204;BME280;3135;42.602;23.468;2022-09-20T01:41:57;93083.59;;;8.64;100.00
6204;BME280;3135;42.602;23.468;2022-09-20T01:47:46;93089.47;;;8.51;100.00
6204;BME280;3135;42.602;23.468;2022-09-20T02:26:16;93075.91;;;8.32;100.00
6204;BME280;3135;42.602;23.468;2022-09-20T02:28:55;93078.81;;;8.36;100.00
6204;BME280;3135;42.602;23.468;2022-09-20T02:42:17;93094.28;;;8.34;100.00
6204;BME280;3135;42.602;23.468;2022-09-20T02:44:53;93087.63;;;8.36;100.00
6204;BME280;3135;42.602;23.468;2022-09-20T02:47:31;93079.13;;;8.24;100.00
6204;BME280;3135;42.602;23.468;2022-09-20T02:55:37;93101.22;;;8.19;100.00
6204;BME280;3135;42.602;23.468;2022-09-20T03:00:51;93093.75;;;8.11;100.00
6204;BME280;3135;42.602;23.468;2022-09-20T03:11:55;93082.31;;;7.90;100.00
6204;BME280;3135;42.602;23.468;2022-09-20T03:14:44;93106.22;;;7.85;100.00
6204;BME280;3135;42.602;23.468;2022-09-20T03:17:22;93113.41;;;7.85;100.00
6204;BME280;3135;42.602;23.468;2022-09-20T03:20:19;93120.09;;;7.98;100.00
6204;BME280;3135;42.602;23.468;2022-09-20T03:23:03;93124.09;;;8.05;100.00
6204;BME280;3135;42.602;23.468;2022-09-20T04:06:44;93132.31;;;7.73;100.00
6204;BME280;3135;42.602;23.468;2022-09-20T04:12:05;93123.81;;;7.86;100.00
6204;BME280;3135;42.602;23.468;2022-09-20T04:15:12;93133.13;;;7.94;100.00
6204;BME280;3135;42.602;23.468;2022-09-20T04:18:00;93153.59;;;7.83;100.00
6204;BME280;3135;42.602;23.468;2022-09-20T04:20:58;93145.63;;;7.88;100.00
6204;BME280;3135;42.602;23.468;2022-09-20T04:23:35;93148.56;;;7.82;100.00
6204;BME280;3135;42.602;23.468;2022-09-20T04:26:03;93149.63;;;7.91;100.00
6204;BME280;3135;42.602;23.468;2022-09-20T04:28:52;93148.84;;;8.01;100.00
6204;BME280;3135;42.602;23.468;2022-09-20T04:31:38;93158.13;;;7.93;100.00
6204;BME280;3135;42.602;23.468;2022-09-20T04:34:15;93149.09;;;8.04;100.00
6204;BME280;3135;42.602;23.468;2022-09-20T04:36:57;93150.72;;;8.15;100.00
6204;BME280;3135;42.602;23.468;2022-09-20T04:39:38;93170.16;;;8.01;100.00
6204;BME280;3135;42.602;23.468;2022-09-20T04:45:12;93171.72;;;7.97;100.00
6204;BME280;3135;42.602;23.468;2022-09-20T04:47:44;93160.22;;;7.81;100.00
6204;BME280;3135;42.602;23.468;2022-09-20T04:58:39;93168.81;;;8.03;100.00
6204;BME280;3135;42.602;23.468;2022-09-20T05:04:23;93166.91;;;7.93;100.00
6204;BME280;3135;42.602;23.468;2022-09-20T05:24:05;93152.03;;;8.13;100.00
6204;BME280;3135;42.602;23.468;2022-09-20T05:27:00;93172.31;;;8.34;100.00
6204;BME280;3135;42.602;23.468;2022-09-20T05:30:00;93184.84;;;8.54;100.00
6204;BME280;3135;42.602;23.468;2022-09-20T05:32:35;93169.16;;;8.48;100.00
6204;BME280;3135;42.602;23.468;2022-09-20T05:40:55;93181.13;;;8.45;100.00
6204;BME280;3135;42.602;23.468;2022-09-20T05:43:30;93182.47;;;8.53;100.00
6204;BME280;3135;42.602;23.468;2022-09-20T05:48:56;93185.13;;;8.53;100.00
6204;BME280;3135;42.602;23.468;2022-09-20T06:00:19;93178.41;;;9.01;100.00
6204;BME280;3135;42.602;23.468;2022-09-20T06:17:38;93191.75;;;9.81;100.00
6204;BME280;3135;42.602;23.468;2022-09-20T06:20:27;93186.69;;;9.80;100.00
6204;BME280;3135;42.602;23.468;2022-09-20T06:22:57;93196.78;;;9.88;100.00
6204;BME280;3135;42.602;23.468;2022-09-20T06:25:29;93197.59;;;9.88;100.00
6204;BME280;3135;42.602;23.468;2022-09-20T06:28:04;93182.41;;;9.84;100.00
6204;BME280;3135;42.602;23.468;2022-09-20T06:30:36;93193.00;;;9.99;100.00
6204;BME280;3135;42.602;23.468;2022-09-20T06:33:18;93193.47;;;10.06;100.00
6204;BME280;3135;42.602;23.468;2022-09-20T06:40:04;93200.22;;;9.98;100.00
6204;BME280;3135;42.602;23.468;2022-09-20T06:42:14;93188.09;;;10.16;100.00
6204;BME280;3135;42.602;23.468;2022-09-20T06:44:39;93196.56;;;10.29;100.00
6204;BME280;3135;42.602;23.468;2022-09-20T06:47:11;93183.72;;;10.36;100.00
6204;BME280;3135;42.602;23.468;2022-09-20T06:49:37;93202.56;;;10.55;99.81
6204;BME280;3135;42.602;23.468;2022-09-20T06:52:09;93192.91;;;10.54;99.73
6204;BME280;3135;42.602;23.468;2022-09-20T06:54:38;93183.69;;;10.41;99.36
6204;BME280;3135;42.602;23.468;2022-09-20T06:57:05;93185.72;;;10.54;99.28
6204;BME280;3135;42.602;23.468;2022-09-20T06:59:31;93195.84;;;10.57;97.70
6204;BME280;3135;42.602;23.468;2022-09-20T07:01:57;93189.41;;;10.58;98.01
6204;BME280;3135;42.602;23.468;2022-09-20T07:04:22;93199.59;;;10.90;97.52
6204;BME280;3135;42.602;23.468;2022-09-20T07:06:49;93186.34;;;11.04;93.71
6204;BME280;3135;42.602;23.468;2022-09-20T07:09:15;93204.63;;;10.97;93.00
6204;BME280;3135;42.602;23.468;2022-09-20T07:11:41;93203.38;;;11.13;95.43
6204;BME280;3135;42.602;23.468;2022-09-20T07:14:48;93211.00;;;11.30;90.89
6204;BME280;3135;42.602;23.468;2022-09-20T07:17:14;93188.69;;;11.40;91.71
6204;BME280;3135;42.602;23.468;2022-09-20T07:19:40;93195.56;;;11.46;90.57
6204;BME280;3135;42.602;23.468;2022-09-20T07:22:05;93208.63;;;11.76;89.29
6204;BME280;3135;42.602;23.468;2022-09-20T07:24:31;93201.22;;;11.68;90.77
6204;BME280;3135;42.602;23.468;2022-09-20T07:27:05;93211.00;;;12.02;89.21
6204;BME280;3135;42.602;23.468;2022-09-20T07:29:31;93196.75;;;12.07;88.10
6204;BME280;3135;42.602;23.468;2022-09-20T07:31:59;93202.19;;;12.20;86.93
6204;BME280;3135;42.602;23.468;2022-09-20T07:34:24;93200.47;;;12.30;87.96
6204;BME280;3135;42.602;23.468;2022-09-20T07:36:51;93218.47;;;12.05;85.77
6204;BME280;3135;42.602;23.468;2022-09-20T07:39:17;93213.41;;;12.22;85.40
6204;BME280;3135;42.602;23.468;2022-09-20T07:41:43;93203.63;;;12.32;83.79
6204;BME280;3135;42.602;23.468;2022-09-20T07:44:15;93218.19;;;12.63;82.25
6204;BME280;3135;42.602;23.468;2022-09-20T07:46:57;93212.59;;;12.78;83.01
6204;BME280;3135;42.602;23.468;2022-09-20T07:49:24;93212.25;;;12.85;79.88
6204;BME280;3135;42.602;23.468;2022-09-20T07:51:52;93212.44;;;13.21;76.42
6204;BME280;3135;42.602;23.468;2022-09-20T07:54:18;93199.56;;;13.23;78.43
6204;BME280;3135;42.602;23.468;2022-09-20T07:56:44;93200.50;;;13.46;76.46
6204;BME280;3135;42.602;23.468;2022-09-20T07:59:11;93211.75;;;13.76;75.00
6204;BME280;3135;42.602;23.468;2022-09-20T08:01:38;93209.44;;;13.55;78.19
6204;BME280;3135;42.602;23.468;2022-09-20T08:08:03;93192.03;;;13.07;76.97
6204;BME280;3135;42.602;23.468;2022-09-20T08:10:28;93188.53;;;13.39;76.53
6204;BME280;3135;42.602;23.468;2022-09-20T08:12:54;93193.16;;;13.79;73.54
6204;BME280;3135;42.602;23.468;2022-09-20T08:15:19;93203.16;;;13.88;70.96
6204;BME280;3135;42.602;23.468;2022-09-20T08:17:46;93194.94;;;13.70;72.11
6204;BME280;3135;42.602;23.468;2022-09-20T08:20:12;93209.38;;;13.74;69.25
6204;BME280;3135;42.602;23.468;2022-09-20T08:22:38;93199.91;;;13.91;67.10
6204;BME280;3135;42.602;23.468;2022-09-20T08:25:06;93199.41;;;13.89;71.58
6204;BME280;3135;42.602;23.468;2022-09-20T08:27:31;93207.84;;;13.96;65.88
6204;BME280;3135;42.602;23.468;2022-09-20T08:29:57;93216.38;;;14.25;66.97
6204;BME280;3135;42.602;23.468;2022-09-20T08:32:23;93194.56;;;14.41;65.99
6204;BME280;3135;42.602;23.468;2022-09-20T08:34:48;93186.44;;;14.68;68.45
6204;BME280;3135;42.602;23.468;2022-09-20T08:37:14;93199.94;;;14.41;61.70
6204;BME280;3135;42.602;23.468;2022-09-20T08:39:39;93211.59;;;14.50;61.46
6204;BME280;3135;42.602;23.468;2022-09-20T08:42:27;93191.88;;;14.54;62.15
6204;BME280;3135;42.602;23.468;2022-09-20T08:45:00;93201.53;;;15.00;62.65
6204;BME280;3135;42.602;23.468;2022-09-20T08:47:31;93182.59;;;14.83;60.87
6204;BME280;3135;42.602;23.468;2022-09-20T08:50:03;93200.50;;;15.64;58.22
6204;BME280;3135;42.602;23.468;2022-09-20T08:52:32;93186.50;;;15.93;54.80
6204;BME280;3135;42.602;23.468;2022-09-20T08:54:59;93180.47;;;15.56;57.74
6204;BME280;3135;42.602;23.468;2022-09-20T08:57:29;93186.06;;;15.37;58.59
6204;BME280;3135;42.602;23.468;2022-09-20T08:59:57;93184.13;;;15.29;59.37
6204;BME280;3135;42.602;23.468;2022-09-20T09:02:23;93174.41;;;15.19;60.97
6204;BME280;3135;42.602;23.468;2022-09-20T09:04:49;93164.75;;;15.49;58.64
6204;BME280;3135;42.602;23.468;2022-09-20T09:07:19;93175.66;;;15.67;58.29
6204;BME280;3135;42.602;23.468;2022-09-20T09:09:47;93186.53;;;16.01;57.15
6204;BME280;3135;42.602;23.468;2022-09-20T09:12:28;93167.69;;;16.27;55.85
6204;BME280;3135;42.602;23.468;2022-09-20T09:14:58;93172.81;;;16.38;54.69
6204;BME280;3135;42.602;23.468;2022-09-20T09:17:27;93162.81;;;16.29;58.81
6204;BME280;3135;42.602;23.468;2022-09-20T09:19:58;93161.06;;;16.25;58.09
6204;BME280;3135;42.602;23.468;2022-09-20T09:22:28;93141.38;;;16.16;55.47
6204;BME280;3135;42.602;23.468;2022-09-20T09:27:49;93157.09;;;16.31;52.43
6204;BME280;3135;42.602;23.468;2022-09-20T09:30:24;93160.44;;;16.45;54.74
6204;BME280;3135;42.602;23.468;2022-09-20T09:32:51;93150.78;;;16.88;56.04
6204;BME280;3135;42.602;23.468;2022-09-20T09:35:24;93155.66;;;16.59;53.57
6204;BME280;3135;42.602;23.468;2022-09-20T09:38:03;93138.38;;;16.69;51.87
6204;BME280;3135;42.602;23.468;2022-09-20T09:40:30;93156.16;;;16.79;55.40
6204;BME280;3135;42.602;23.468;2022-09-20T09:43:01;93152.16;;;16.24;53.64
6204;BME280;3135;42.602;23.468;2022-09-20T09:45:35;93147.13;;;16.57;54.18
6204;BME280;3135;42.602;23.468;2022-09-20T09:50:41;93124.91;;;16.86;49.62
6204;BME280;3135;42.602;23.468;2022-09-20T09:53:14;93151.88;;;17.13;49.93
6204;BME280;3135;42.602;23.468;2022-09-20T10:00:57;93138.09;;;17.91;50.03
6204;BME280;3135;42.602;23.468;2022-09-20T10:03:33;93139.78;;;18.04;48.49
6204;BME280;3135;42.602;23.468;2022-09-20T10:12:34;93131.47;;;17.79;48.21
6204;BME280;3135;42.602;23.468;2022-09-20T10:15:08;93138.25;;;17.47;52.06
6204;BME280;3135;42.602;23.468;2022-09-20T10:36:56;93126.00;;;17.50;47.05
6204;BME280;3135;42.602;23.468;2022-09-20T10:45:15;93124.06;;;18.27;48.72
6204;BME280;3135;42.602;23.468;2022-09-20T10:48:40;93126.31;;;18.46;45.86
6204;BME280;3135;42.602;23.468;2022-09-20T10:51:24;93113.09;;;18.65;45.44
6204;BME280;3135;42.602;23.468;2022-09-20T10:56:50;93116.13;;;18.43;45.98
6204;BME280;3135;42.602;23.468;2022-09-20T11:01:55;93128.22;;;18.45;45.93
6204;BME280;3135;42.602;23.468;2022-09-20T11:04:48;93124.31;;;17.83;48.99
6204;BME280;3135;42.602;23.468;2022-09-20T11:07:22;93117.94;;;17.88;47.17
6204;BME280;3135;42.602;23.468;2022-09-20T11:10:15;93113.47;;;18.13;45.14
6204;BME280;3135;42.602;23.468;2022-09-20T11:13:01;93090.13;;;18.08;46.41
6204;BME280;3135;42.602;23.468;2022-09-20T11:15:38;93112.09;;;18.07;46.86
6204;BME280;3135;42.602;23.468;2022-09-20T11:18:16;93104.19;;;18.23;44.18
6204;BME280;3135;42.602;23.468;2022-09-20T11:20:54;93100.88;;;18.17;45.23
6204;BME280;3135;42.602;23.468;2022-09-20T11:23:27;93096.38;;;18.00;44.55
6204;BME280;3135;42.602;23.468;2022-09-20T11:26:00;93078.75;;;18.15;46.60
6204;BME280;3135;42.602;23.468;2022-09-20T11:28:39;93093.94;;;18.07;45.57
6204;BME280;3135;42.602;23.468;2022-09-20T11:31:30;93104.69;;;18.58;45.18
6204;BME280;3135;42.602;23.468;2022-09-20T11:34:17;93096.34;;;18.72;43.63
6204;BME280;3135;42.602;23.468;2022-09-20T11:36:54;93081.94;;;18.59;44.67
6204;BME280;3135;42.602;23.468;2022-09-20T11:39:49;93110.47;;;18.35;44.59
6204;BME280;3135;42.602;23.468;2022-09-20T11:42:18;93093.56;;;18.38;45.10
6204;BME280;3135;42.602;23.468;2022-09-20T11:44:45;93100.16;;;18.29;45.00
6204;BME280;3135;42.602;23.468;2022-09-20T11:47:25;93090.91;;;18.30;42.23
6204;BME280;3135;42.602;23.468;2022-09-20T11:55:56;93093.81;;;18.25;43.57
6204;BME280;3135;42.602;23.468;2022-09-20T11:58:24;93063.84;;;18.30;44.44
6204;BME280;3135;42.602;23.468;2022-09-20T12:00:53;93089.84;;;18.43;42.45
6204;BME280;3135;42.602;23.468;2022-09-20T12:03:27;93075.59;;;18.13;42.78
6204;BME280;3135;42.602;23.468;2022-09-20T12:05:57;93092.03;;;18.08;42.17
6204;BME280;3135;42.602;23.468;2022-09-20T12:08:30;93085.19;;;18.31;43.42
6204;BME280;3135;42.602;23.468;2022-09-20T12:11:01;93072.84;;;18.22;43.16
6204;BME280;3135;42.602;23.468;2022-09-20T12:13:30;93053.03;;;18.09;43.96
6204;BME280;3135;42.602;23.468;2022-09-20T12:16:41;93073.63;;;18.22;44.61
6204;BME280;3135;42.602;23.468;2022-09-20T12:27:05;93067.59;;;17.75;43.94
6204;BME280;3135;42.602;23.468;2022-09-20T12:30:13;93071.47;;;17.18;46.33
6204;BME280;3135;42.602;23.468;2022-09-20T12:32:43;93056.63;;;16.86;45.24
6204;BME280;3135;42.602;23.468;2022-09-20T12:41:09;93075.78;;;17.49;43.82
6204;BME280;3135;42.602;23.468;2022-09-20T12:46:36;93060.69;;;17.09;44.90
6204;BME280;3135;42.602;23.468;2022-09-20T12:49:33;93069.78;;;17.43;44.55
6204;BME280;3135;42.602;23.468;2022-09-20T12:52:27;93072.34;;;17.31;45.36
6204;BME280;3135;42.602;23.468;2022-09-20T12:58:25;93062.91;;;17.07;45.45
6204;BME280;3135;42.602;23.468;2022-09-20T13:03:34;93071.38;;;16.89;43.31
6204;BME280;3135;42.602;23.468;2022-09-20T13:11:28;93056.97;;;16.84;43.56
6204;BME280;3135;42.602;23.468;2022-09-20T13:13:57;93054.88;;;16.90;44.98
6204;BME280;3135;42.602;23.468;2022-09-20T13:19:15;93069.31;;;16.94;45.44
6204;BME280;3135;42.602;23.468;2022-09-20T13:24:50;93054.41;;;16.79;44.64
6204;BME280;3135;42.602;23.468;2022-09-20T13:27:32;93043.31;;;16.64;43.71
6204;BME280;3135;42.602;23.468;2022-09-20T13:30:16;93050.22;;;17.08;45.47
6204;BME280;3135;42.602;23.468;2022-09-20T13:32:41;93064.16;;;17.19;44.58
6204;BME280;3135;42.602;23.468;2022-09-20T13:35:14;93046.41;;;17.09;45.23
6204;BME280;3135;42.602;23.468;2022-09-20T13:40:23;93056.88;;;17.02;44.36
6204;BME280;3135;42.602;23.468;2022-09-20T13:42:51;93036.16;;;16.85;43.76
6204;BME280;3135;42.602;23.468;2022-09-20T13:45:19;93052.59;;;17.01;44.56
6204;BME280;3135;42.602;23.468;2022-09-20T13:47:51;93061.31;;;17.15;43.85
6204;BME280;3135;42.602;23.468;2022-09-20T13:50:22;93039.63;;;16.85;42.68
6204;BME280;3135;42.602;23.468;2022-09-20T13:52:51;93060.91;;;16.78;43.24
6204;BME280;3135;42.602;23.468;2022-09-20T13:55:36;93056.19;;;16.75;44.72
6204;BME280;3135;42.602;23.468;2022-09-20T13:58:05;93053.31;;;16.80;43.77
6204;BME280;3135;42.602;23.468;2022-09-20T14:00:32;93052.44;;;16.97;44.53
6204;BME280;3135;42.602;23.468;2022-09-20T14:02:59;93053.25;;;16.98;43.79
6204;BME280;3135;42.602;23.468;2022-09-20T14:05:27;93045.38;;;16.75;43.09
6204;BME280;3135;42.602;23.468;2022-09-20T14:07:55;93021.34;;;16.91;42.94
6204;BME280;3135;42.602;23.468;2022-09-20T14:10:33;93043.72;;;17.00;43.69
6204;BME280;3135;42.602;23.468;2022-09-20T14:13:00;93030.44;;;16.78;43.79
6204;BME280;3135;42.602;23.468;2022-09-20T14:15:40;93051.09;;;16.56;43.51
6204;BME280;3135;42.602;23.468;2022-09-20T14:18:10;93033.97;;;16.44;43.24
6204;BME280;3135;42.602;23.468;2022-09-20T14:20:40;93045.72;;;16.39;43.32
6204;BME280;3135;42.602;23.468;2022-09-20T14:23:20;93030.66;;;16.38;44.83
6204;BME280;3135;42.602;23.468;2022-09-20T14:28:43;93031.88;;;16.58;42.91
6204;BME280;3135;42.602;23.468;2022-09-20T14:31:16;93049.66;;;16.59;43.33
6204;BME280;3135;42.602;23.468;2022-09-20T14:33:45;93043.63;;;16.53;42.89
6204;BME280;3135;42.602;23.468;2022-09-20T14:36:13;93050.78;;;16.49;43.38
6204;BME280;3135;42.602;23.468;2022-09-20T14:38:43;93057.91;;;16.63;43.54
6204;BME280;3135;42.602;23.468;2022-09-20T14:41:08;93047.91;;;16.63;43.89
6204;BME280;3135;42.602;23.468;2022-09-20T14:43:35;93052.81;;;16.70;45.45
6204;BME280;3135;42.602;23.468;2022-09-20T14:46:02;93066.34;;;16.61;43.42
6204;BME280;3135;42.602;23.468;2022-09-20T14:48:36;93060.00;;;16.57;44.00
6204;BME280;3135;42.602;23.468;2022-09-20T14:53:41;93058.09;;;16.31;44.67
6204;BME280;3135;42.602;23.468;2022-09-20T14:56:12;93065.56;;;16.34;43.53
6204;BME280;3135;42.602;23.468;2022-09-20T15:01:31;93069.66;;;16.41;46.85
6204;BME280;3135;42.602;23.468;2022-09-20T15:03:57;93035.41;;;16.24;47.32
6204;BME280;3135;42.602;23.468;2022-09-20T15:06:22;93044.91;;;16.13;48.86
6204;BME280;3135;42.602;23.468;2022-09-20T15:08:48;93051.75;;;16.10;48.79
6204;BME280;3135;42.602;23.468;2022-09-20T15:11:15;93052.53;;;16.02;49.51
6204;BME280;3135;42.602;23.468;2022-09-20T15:13:41;93064.88;;;15.77;47.33
6204;BME280;3135;42.602;23.468;2022-09-20T15:16:07;93049.66;;;15.32;47.69
6204;BME280;3135;42.602;23.468;2022-09-20T15:18:38;93047.63;;;15.29;48.35
6204;BME280;3135;42.602;23.468;2022-09-20T15:21:04;93063.63;;;15.34;49.17
6204;BME280;3135;42.602;23.468;2022-09-20T15:23:30;93044.84;;;15.12;50.57
6204;BME280;3135;42.602;23.468;2022-09-20T15:25:56;93060.50;;;15.01;51.40
6204;BME280;3135;42.602;23.468;2022-09-20T15:28:21;93047.88;;;15.11;52.74
6204;BME280;3135;42.602;23.468;2022-09-20T15:30:49;93062.88;;;15.03;52.58
6204;BME280;3135;42.602;23.468;2022-09-20T15:33:15;93058.28;;;15.03;53.59
6204;BME280;3135;42.602;23.468;2022-09-20T15:35:42;93063.22;;;14.79;54.06
6204;BME280;3135;42.602;23.468;2022-09-20T15:38:08;93058.03;;;14.82;53.23
6204;BME280;3135;42.602;23.468;2022-09-20T15:40:38;93054.84;;;14.58;54.14
6204;BME280;3135;42.602;23.468;2022-09-20T15:43:04;93063.91;;;14.62;54.38
6204;BME280;3135;42.602;23.468;2022-09-20T15:45:29;93070.34;;;14.52;55.25
6204;BME280;3135;42.602;23.468;2022-09-20T15:47:55;93055.16;;;14.12;55.74
6204;BME280;3135;42.602;23.468;2022-09-20T15:50:22;93062.22;;;14.30;57.15
6204;BME280;3135;42.602;23.468;2022-09-20T15:52:48;93039.84;;;14.12;56.33
6204;BME280;3135;42.602;23.468;2022-09-20T15:55:16;93048.97;;;14.11;57.20
6204;BME280;3135;42.602;23.468;2022-09-20T15:57:42;93064.50;;;14.14;56.15
6204;BME280;3135;42.602;23.468;2022-09-20T16:00:08;93072.16;;;13.85;58.36
6204;BME280;3135;42.602;23.468;2022-09-20T16:02:33;93072.50;;;13.69;59.46
6204;BME280;3135;42.602;23.468;2022-09-20T16:04:59;93065.34;;;13.51;60.81
6204;BME280;3135;42.602;23.468;2022-09-20T16:07:25;93059.19;;;13.37;62.29
6204;BME280;3135;42.602;23.468;2022-09-20T16:09:51;93067.94;;;13.42;62.50
6204;BME280;3135;42.602;23.468;2022-09-20T16:12:17;93055.22;;;13.34;63.32
6204;BME280;3135;42.602;23.468;2022-09-20T16:14:43;93064.25;;;13.52;64.04
6204;BME280;3135;42.602;23.468;2022-09-20T16:17:08;93073.00;;;13.44;64.75
6204;BME280;3135;42.602;23.468;2022-09-20T16:19:34;93068.31;;;13.36;64.80
6204;BME280;3135;42.602;23.468;2022-09-20T16:21:59;93071.22;;;13.39;66.26
6204;BME280;3135;42.602;23.468;2022-09-20T16:24:27;93069.84;;;13.28;66.52
6204;BME280;3135;42.602;23.468;2022-09-20T16:26:54;93066.03;;;13.15;66.09
6204;BME280;3135;42.602;23.468;2022-09-20T16:29:19;93060.16;;;12.99;68.80
6204;BME280;3135;42.602;23.468;2022-09-20T16:31:49;93077.19;;;13.22;68.30
6204;BME280;3135;42.602;23.468;2022-09-20T16:34:20;93069.41;;;13.21;69.29
6204;BME280;3135;42.602;23.468;2022-09-20T16:36:50;93088.06;;;13.12;69.30
6204;BME280;3135;42.602;23.468;2022-09-20T16:39:18;93074.44;;;12.81;68.09
6204;BME280;3135;42.602;23.468;2022-09-20T16:41:45;93079.16;;;12.57;68.16
6204;BME280;3135;42.602;23.468;2022-09-20T16:44:11;93078.06;;;12.58;70.39
6204;BME280;3135;42.602;23.468;2022-09-20T16:46:37;93082.38;;;12.72;69.06
6204;BME280;3135;42.602;23.468;2022-09-20T16:49:08;93074.28;;;12.59;67.73
6204;BME280;3135;42.602;23.468;2022-09-20T16:51:37;93098.75;;;12.71;69.05
6204;BME280;3135;42.602;23.468;2022-09-20T16:54:11;93086.56;;;12.46;68.77
6204;BME280;3135;42.602;23.468;2022-09-20T16:56:39;93091.88;;;12.32;69.54
6204;BME280;3135;42.602;23.468;2022-09-20T16:59:05;93103.06;;;12.53;70.39
6204;BME280;3135;42.602;23.468;2022-09-20T17:01:32;93104.63;;;12.40;70.41
6204;BME280;3135;42.602;23.468;2022-09-20T17:03:59;93097.47;;;12.36;71.28
6204;BME280;3135;42.602;23.468;2022-09-20T17:06:25;93108.09;;;12.41;72.50
6204;BME280;3135;42.602;23.468;2022-09-20T17:08:54;93102.91;;;12.12;71.30
6204;BME280;3135;42.602;23.468;2022-09-20T17:11:22;93100.31;;;12.07;72.61
6204;BME280;3135;42.602;23.468;2022-09-20T17:13:50;93111.44;;;12.14;72.13
6204;BME280;3135;42.602;23.468;2022-09-20T17:16:27;93106.22;;;12.22;71.54
6204;BME280;3135;42.602;23.468;2022-09-20T17:21:21;93117.97;;;12.08;71.42
6204;BME280;3135;42.602;23.468;2022-09-20T17:23:48;93121.03;;;12.01;70.92
6204;BME280;3135;42.602;23.468;2022-09-20T17:26:22;93120.88;;;11.92;72.44
6204;BME280;3135;42.602;23.468;2022-09-20T17:28:49;93111.22;;;11.72;73.83
6204;BME280;3135;42.602;23.468;2022-09-20T17:31:21;93114.69;;;11.73;73.37
6204;BME280;3135;42.602;23.468;2022-09-20T17:33:48;93128.00;;;11.78;74.00
6204;BME280;3135;42.602;23.468;2022-09-20T17:36:16;93122.25;;;11.66;73.29
6204;BME280;3135;42.602;23.468;2022-09-20T17:38:44;93105.53;;;11.55;73.93
6204;BME280;3135;42.602;23.468;2022-09-20T17:41:17;93113.63;;;11.50;74.28
6204;BME280;3135;42.602;23.468;2022-09-20T17:43:44;93122.75;;;11.49;76.16
6204;BME280;3135;42.602;23.468;2022-09-20T17:46:22;93129.47;;;11.46;76.47
6204;BME280;3135;42.602;23.468;2022-09-20T17:48:51;93129.41;;;11.51;77.20
6204;BME280;3135;42.602;23.468;2022-09-20T17:51:21;93125.75;;;11.42;76.80
6204;BME280;3135;42.602;23.468;2022-09-20T17:53:48;93118.31;;;11.39;78.45
6204;BME280;3135;42.602;23.468;2022-09-20T17:56:13;93124.03;;;11.51;78.51
6204;BME280;3135;42.602;23.468;2022-09-20T17:58:40;93122.53;;;11.45;77.55
6204;BME280;3135;42.602;23.468;2022-09-20T18:01:11;93128.53;;;11.56;78.32
6204;BME280;3135;42.602;23.468;2022-09-20T18:03:40;93126.81;;;11.65;78.87
6204;BME280;3135;42.602;23.468;2022-09-20T18:06:19;93132.53;;;11.59;78.11
6204;BME280;3135;42.602;23.468;2022-09-20T18:08:50;93135.84;;;11.50;78.47
6204;BME280;3135;42.602;23.468;2022-09-20T18:11:18;93129.81;;;11.40;79.98
6204;BME280;3135;42.602;23.468;2022-09-20T18:13:44;93142.03;;;11.46;78.19
6204;BME280;3135;42.602;23.468;2022-09-20T18:16:10;93114.69;;;11.30;80.33
6204;BME280;3135;42.602;23.468;2022-09-20T18:18:40;93137.22;;;11.48;80.76
6204;BME280;3135;42.602;23.468;2022-09-20T18:21:17;93130.44;;;11.32;80.27
6204;BME280;3135;42.602;23.468;2022-09-20T18:23:43;93124.06;;;11.27;82.16
6204;BME280;3135;42.602;23.468;2022-09-20T18:26:11;93126.13;;;11.36;81.37
6204;BME280;3135;42.602;23.468;2022-09-20T18:29:10;93130.38;;;11.37;80.66